• Join FlightAware (Why Join?)
  • Login
  • US Flag 
04:26PM EST


 

Airport Tracker/Info


-or-


 

Live Flight TrackerFlight Track Log ✈ N478DR ✈ 04-Nov-2013 ✈ KGRB - KSTP

Flight Track Log - Related Links

Times and Time Zones

All times are in EST time to prevent confusion due to time zone crossing. See the N478DR flight status page for this flight to view local times or setup timezone preferences in your user account.

Time Position Orientation Groundspeed Altitude Reporting Facility
EST Latitude Longitude Course Direction KTS MPH feet Rate Location/Type
12:33AM 44.4847 -88.2475 133° Southeast 273 314 4,600  Level Minneapolis Center
12:34AM 44.4975 -88.3447 280° West 257 296 7,500 2,820 Climbing Minneapolis Center
12:35AM 44.5108 -88.4450 281° West 262 302 10,300 2,520 Climbing Minneapolis Center
12:36AM 44.5264 -88.5625 281° West 298 343 12,700 2,220 Climbing Minneapolis Center
12:37AM 44.5431 -88.6881 281° West 323 372 14,800 1,920 Climbing Minneapolis Center
12:38AM 44.9333 -93.0500 133° Southeast  Level FlightAware Approximate
12:38AM 44.5611 -88.8181 281° West 338 389 16,600  Level Minneapolis Center
12:39AM 44.5794 -88.9511 281° West 347 399 18,200 1,620 Climbing Minneapolis Center
12:40AM 44.5981 -89.0817 281° West 346 398 19,900 1,500 Climbing Minneapolis Center
12:41AM 44.6158 -89.2128 281° West 344 396 21,300 1,020 Climbing Minneapolis Center
12:42AM 44.6289 -89.3464 278° West 346 398 22,000 300 Climbing Minneapolis Center
12:43AM 44.6417 -89.4842 277° West 355 409 22,000  Level Minneapolis Center
12:44AM 44.6558 -89.6228 278° West 359 413 22,000  Level Minneapolis Center
12:45AM 44.6697 -89.7622 278° West 362 417 22,000  Level Minneapolis Center
12:46AM 44.6819 -89.9031 277° West 362 417 22,000  Level Minneapolis Center
12:47AM 44.6953 -90.0714 276° West 363 418 22,000  Level Minneapolis Center
12:48AM 44.7050 -90.2111 276° West 360 414 22,000  Level Minneapolis Center
12:49AM 44.7133 -90.3497 275° West 358 412 22,000  Level Minneapolis Center
12:50AM 44.7222 -90.4872 275° West 356 410 22,000  Level Minneapolis Center
12:51AM 44.7303 -90.6072 275° West 355 409 22,000  Level Minneapolis Center
12:52AM 44.7378 -90.7456 274° West 355 409 22,000  Level Minneapolis Center
12:53AM 44.7469 -90.8828 275° West 353 406 22,000  Level Minneapolis Center
12:54AM 44.7561 -91.0211 275° West 356 410 22,000  Level Minneapolis Center
12:55AM 44.7647 -91.1589 275° West 356 410 22,000  Level Minneapolis Center
12:56AM 44.7719 -91.2958 274° West 353 406 22,000 -360 Level Minneapolis Center
12:57AM 44.7808 -91.4586 274° West 350 403 21,300 -1,020 Descending Minneapolis Center
12:58AM 44.7889 -91.5942 275° West 350 403 20,000 -1,320 Descending Minneapolis Center
12:59AM 44.7956 -91.7261 274° West 343 395 18,600 -1,500 Descending Minneapolis Center
01:00AM 44.8028 -91.8633 274° West 349 402 16,900 -1,800 Descending Minneapolis Center
01:01AM 44.8097 -91.9933 274° West 335 386 15,000 -2,040 Descending Minneapolis Center
01:02AM 44.8147 -92.1203 273° West 326 375 12,900 -2,400 Descending Minneapolis Center
01:03AM 44.8217 -92.2386 275° West 303 349 10,200 -1,440 Descending Minneapolis Center
01:04AM 44.8261 -92.3400 274° West 264 304 10,000 -180 Descending Minneapolis Center
01:05AM 44.8317 -92.4478 274° West 278 320 9,900 -1,200 Descending Minneapolis Center
01:06AM 44.8364 -92.5550 274° West 275 316 7,700 -2,040 Descending Minneapolis Center
01:07AM 44.8408 -92.6522 274° West 252 290 5,900 -1,860 Descending Minneapolis Center
01:08AM 44.8503 -92.7408 279° West 234 269 4,000 -1,440 Descending Minneapolis Center
01:09AM 44.8644 -92.8256 283° West 225 259 3,000 -540 Descending Minneapolis Center
01:10AM 44.8717 -92.9000 278° West 190 219 3,000 -180 Level Minneapolis Center
01:11AM 44.8731 -92.9744 272° West 180 207 2,700 -300 Descending Minneapolis Center
01:13AM 44.9202 -93.0412 335° Northwest  Level FlightAware Approximate
01:20AM 44.9333 -93.0500 335° Northwest  Level FlightAware Approximate
01:21AM 44.9346 -93.0603 335° Northwest  Level Estimated
01:22AM 44.9346 -93.0603 335° Northwest  Level Estimated
01:23AM 44.9346 -93.0603 335° Northwest  Level Estimated